createdAt,value
2022-09-20T00:00:25.276Z,11.85
2022-09-20T00:02:51.670Z,11.57
2022-09-20T00:05:18.210Z,14.30
2022-09-20T00:07:45.322Z,10.85
2022-09-20T00:10:11.880Z,14.50
2022-09-20T00:12:38.356Z,13.75
2022-09-20T00:15:05.642Z,11.90
2022-09-20T00:17:32.096Z,9.73
2022-09-20T00:19:58.633Z,17.30
2022-09-20T00:22:25.087Z,17.05
2022-09-20T00:24:51.516Z,11.40
2022-09-20T00:27:17.927Z,12.20
2022-09-20T00:29:44.295Z,13.85
2022-09-20T00:32:10.691Z,9.38
2022-09-20T00:34:55.768Z,16.23
2022-09-20T00:37:22.189Z,11.30
2022-09-20T00:39:48.601Z,11.60
2022-09-20T00:42:15.503Z,11.32
2022-09-20T00:44:51.163Z,11.88
2022-09-20T00:47:33.211Z,11.90
2022-09-20T00:50:13.916Z,11.25
2022-09-20T00:52:43.884Z,10.40
2022-09-20T00:55:10.863Z,12.43
2022-09-20T00:57:38.630Z,11.43
2022-09-20T01:00:08.139Z,12.25
2022-09-20T01:02:36.079Z,12.15
2022-09-20T01:05:02.611Z,12.80
2022-09-20T01:07:29.775Z,10.00
2022-09-20T01:09:56.147Z,13.35
2022-09-20T01:12:26.746Z,8.35
2022-09-20T01:14:53.851Z,15.05
2022-09-20T01:17:23.144Z,14.00
2022-09-20T01:20:05.998Z,15.75
2022-09-20T01:25:22.687Z,8.10
2022-09-20T01:27:50.866Z,11.40
2022-09-20T01:30:23.673Z,11.88
2022-09-20T01:33:05.213Z,8.60
2022-09-20T01:35:32.991Z,9.48
2022-09-20T01:38:13.512Z,7.95
2022-09-20T01:41:04.327Z,8.52
2022-09-20T01:43:41.188Z,10.93
2022-09-20T01:46:28.308Z,11.45
2022-09-20T01:49:16.753Z,11.20
2022-09-20T01:52:04.441Z,13.45
2022-09-20T01:54:49.567Z,13.52
2022-09-20T01:57:45.522Z,11.35
2022-09-20T02:00:24.391Z,11.60
2022-09-20T02:03:31.325Z,11.27
2022-09-20T02:06:12.981Z,9.50
2022-09-20T02:08:48.803Z,8.13
2022-09-20T02:11:42.111Z,9.80
2022-09-20T02:14:14.433Z,11.63
2022-09-20T02:16:47.504Z,12.15
2022-09-20T02:19:17.060Z,11.10
2022-09-20T02:22:02.565Z,9.27
2022-09-20T02:24:37.979Z,13.82
2022-09-20T02:27:36.870Z,10.90
2022-09-20T02:30:25.367Z,9.45
2022-09-20T02:33:11.298Z,12.35
2022-09-20T02:35:42.425Z,10.35
2022-09-20T02:38:33.364Z,10.00
2022-09-20T02:41:23.084Z,7.82
2022-09-20T02:44:14.247Z,11.93
2022-09-20T02:47:18.617Z,11.68
2022-09-20T02:50:18.064Z,10.27
2022-09-20T02:53:21.976Z,6.50
2022-09-20T02:56:19.255Z,8.05
2022-09-20T02:59:09.908Z,9.82
2022-09-20T03:01:47.913Z,8.82
2022-09-20T03:04:44.278Z,9.43
2022-09-20T03:07:30.089Z,14.40
2022-09-20T03:10:22.570Z,6.10
2022-09-20T03:13:04.266Z,6.20
2022-09-20T03:15:43.119Z,7.32
2022-09-20T03:18:17.938Z,6.10
2022-09-20T03:21:02.169Z,12.45
2022-09-20T03:23:52.816Z,9.35
2022-09-20T03:26:40.959Z,9.45
2022-09-20T03:29:20.996Z,10.32
2022-09-20T03:32:05.599Z,7.03
2022-09-20T03:34:55.309Z,7.90
2022-09-20T03:37:29.066Z,10.40
2022-09-20T03:40:07.643Z,11.70
2022-09-20T03:42:36.462Z,12.38
2022-09-20T03:45:37.168Z,10.82
2022-09-20T03:48:18.747Z,7.03
2022-09-20T03:51:35.337Z,8.93
2022-09-20T03:54:25.199Z,11.35
2022-09-20T03:56:54.522Z,10.80
2022-09-20T03:59:42.152Z,7.07
2022-09-20T04:02:22.131Z,5.82
2022-09-20T04:04:54.755Z,12.23
2022-09-20T04:10:13.782Z,9.27
2022-09-20T04:13:01.755Z,8.30
2022-09-20T04:15:44.287Z,8.90
2022-09-20T04:18:20.004Z,11.18
2022-09-20T04:20:50.471Z,8.77
2022-09-20T04:23:42.987Z,11.60
2022-09-20T04:26:09.562Z,9.60
2022-09-20T04:28:47.309Z,9.55
2022-09-20T04:31:37.523Z,5.65
2022-09-20T04:34:06.671Z,10.30
2022-09-20T04:36:49.729Z,11.52
2022-09-20T04:39:29.051Z,12.68
2022-09-20T04:42:23.430Z,8.52
2022-09-20T04:45:11.075Z,9.73
2022-09-20T04:48:04.331Z,11.07
2022-09-20T04:50:48.852Z,11.30
2022-09-20T04:53:34.132Z,9.32
2022-09-20T04:56:03.262Z,7.53
2022-09-20T04:58:56.717Z,11.45
2022-09-20T05:01:36.010Z,13.15
2022-09-20T05:04:12.711Z,9.63
2022-09-20T05:06:51.106Z,6.78
2022-09-20T05:09:44.888Z,11.93
2022-09-20T05:12:41.627Z,11.60
2022-09-20T05:15:39.160Z,17.20
2022-09-20T05:18:24.245Z,13.63
2022-09-20T05:21:03.531Z,11.20
2022-09-20T05:23:50.871Z,16.45
2022-09-20T05:26:54.715Z,13.88
2022-09-20T05:29:51.601Z,12.50
2022-09-20T05:32:24.336Z,13.63
2022-09-20T05:35:00.039Z,12.77
2022-09-20T05:37:39.903Z,13.48
2022-09-20T05:40:16.265Z,14.05
2022-09-20T05:43:11.980Z,15.40
2022-09-20T05:45:57.097Z,16.15
2022-09-20T05:48:37.648Z,13.25
2022-09-20T05:51:22.783Z,16.33
2022-09-20T05:54:20.663Z,10.32
2022-09-20T05:57:00.826Z,11.95
2022-09-20T06:00:02.130Z,10.35
2022-09-20T06:02:56.800Z,15.60
2022-09-20T06:05:46.792Z,9.93
2022-09-20T06:08:34.902Z,14.55
2022-09-20T06:11:13.608Z,14.15
2022-09-20T06:13:59.709Z,12.68
2022-09-20T06:16:33.880Z,12.63
2022-09-20T06:19:06.060Z,8.43
2022-09-20T06:21:46.850Z,11.80
2022-09-20T06:24:36.924Z,8.82
2022-09-20T06:27:17.384Z,10.60
2022-09-20T06:29:48.424Z,14.68
2022-09-20T06:32:18.445Z,12.02
2022-09-20T06:34:45.268Z,10.75
2022-09-20T06:37:55.861Z,10.48
2022-09-20T06:40:50.183Z,10.93
2022-09-20T06:43:17.004Z,12.32
2022-09-20T06:46:36.084Z,12.93
2022-09-20T06:49:03.410Z,14.75
2022-09-20T06:51:36.287Z,9.60
2022-09-20T06:54:03.555Z,13.38
2022-09-20T06:56:32.074Z,10.05
2022-09-20T06:58:58.500Z,7.80
2022-09-20T07:01:30.097Z,10.13
2022-09-20T07:03:58.591Z,11.18
2022-09-20T07:06:25.013Z,15.00
2022-09-20T07:08:51.366Z,10.40
2022-09-20T07:11:18.226Z,10.10
2022-09-20T07:13:45.521Z,15.93
2022-09-20T07:16:14.112Z,10.68
2022-09-20T07:18:41.325Z,14.98
2022-09-20T07:21:16.282Z,12.50
2022-09-20T07:23:45.719Z,12.65
2022-09-20T07:26:26.897Z,14.20
2022-09-20T07:28:53.628Z,16.27
2022-09-20T07:31:21.566Z,10.93
2022-09-20T07:33:47.980Z,11.35
2022-09-20T07:36:14.786Z,11.00
2022-09-20T07:38:41.972Z,11.70
2022-09-20T07:41:09.412Z,11.68
2022-09-20T07:43:35.966Z,15.63
2022-09-20T07:46:02.606Z,10.18
2022-09-20T07:48:34.302Z,11.65
2022-09-20T07:51:09.771Z,11.87
2022-09-20T07:53:37.071Z,15.25
2022-09-20T07:56:14.587Z,15.52
2022-09-20T07:58:42.359Z,10.35
2022-09-20T08:01:11.083Z,12.45
2022-09-20T08:03:37.810Z,13.20
2022-09-20T08:06:09.690Z,12.10
2022-09-20T08:08:37.859Z,9.18
2022-09-20T08:11:18.659Z,10.73
2022-09-20T08:16:39.275Z,12.65
2022-09-20T08:19:05.749Z,12.43
2022-09-20T08:21:33.726Z,12.13
2022-09-20T08:24:00.384Z,16.15
2022-09-20T08:26:28.374Z,12.68
2022-09-20T08:28:56.866Z,13.95
2022-09-20T08:31:25.784Z,10.35
2022-09-20T08:33:53.020Z,12.50
2022-09-20T08:36:22.027Z,9.10
2022-09-20T08:41:39.203Z,12.70
2022-09-20T08:44:17.801Z,8.45
2022-09-20T08:46:50.106Z,9.95
2022-09-20T08:49:26.223Z,10.57
2022-09-20T08:51:53.434Z,10.00
2022-09-20T08:54:19.881Z,10.95
2022-09-20T08:56:46.699Z,7.78
2022-09-20T08:59:19.926Z,7.45
2022-09-20T09:01:50.267Z,12.15
2022-09-20T09:04:17.732Z,9.50
2022-09-20T09:06:45.340Z,11.20
2022-09-20T09:09:19.632Z,9.30
2022-09-20T09:11:47.749Z,13.65
2022-09-20T09:14:52.356Z,12.15
2022-09-20T09:17:27.557Z,9.48
2022-09-20T09:19:56.531Z,7.55
2022-09-20T09:22:35.151Z,7.55
2022-09-20T09:25:10.367Z,6.25
2022-09-20T09:27:57.203Z,8.50
2022-09-20T09:30:43.933Z,12.80
2022-09-20T09:33:16.262Z,6.75
2022-09-20T09:35:44.010Z,5.97
2022-09-20T09:38:29.178Z,5.13
2022-09-20T09:41:00.940Z,4.65
2022-09-20T09:43:33.058Z,5.50
2022-09-20T09:46:21.422Z,9.57
2022-09-20T09:49:05.483Z,10.13
2022-09-20T09:51:33.345Z,7.55
2022-09-20T09:54:00.261Z,6.35
2022-09-20T09:56:47.224Z,6.68
2022-09-20T09:59:42.200Z,6.80
2022-09-20T10:02:14.531Z,8.05
2022-09-20T10:05:04.254Z,6.07
2022-09-20T10:08:04.634Z,6.20
2022-09-20T10:10:54.891Z,5.40
2022-09-20T10:13:49.192Z,11.05
2022-09-20T10:16:48.930Z,6.80
2022-09-20T10:19:24.728Z,9.02
2022-09-20T10:21:56.905Z,4.25
2022-09-20T10:24:38.667Z,4.70
2022-09-20T10:27:36.044Z,6.40
2022-09-20T10:30:09.974Z,5.03
2022-09-20T10:33:14.034Z,6.75
2022-09-20T10:35:49.837Z,6.57
2022-09-20T10:38:22.149Z,6.10
2022-09-20T10:41:26.443Z,6.68
2022-09-20T10:44:26.883Z,4.55
2022-09-20T10:46:59.533Z,5.50
2022-09-20T10:49:32.071Z,4.72
2022-09-20T10:55:16.622Z,3.80
2022-09-20T10:58:20.775Z,6.18
2022-09-20T11:01:06.124Z,5.50
2022-09-20T11:04:00.520Z,3.40
2022-09-20T11:06:48.542Z,3.97
2022-09-20T11:09:20.403Z,2.17
2022-09-20T11:11:54.644Z,2.95
2022-09-20T11:14:35.501Z,5.07
2022-09-20T11:17:09.423Z,3.22
2022-09-20T11:19:37.926Z,3.05
2022-09-20T11:22:21.789Z,3.50
2022-09-20T11:24:53.591Z,4.90
2022-09-20T11:27:35.765Z,3.20
2022-09-20T11:30:05.490Z,4.07
2022-09-20T11:32:36.682Z,4.22
2022-09-20T11:35:12.045Z,1.95
2022-09-20T11:37:43.299Z,1.58
2022-09-20T11:40:22.415Z,2.20
2022-09-20T11:42:50.153Z,3.25
2022-09-20T11:45:16.778Z,4.10
2022-09-20T11:47:54.986Z,3.25
2022-09-20T11:50:40.227Z,3.15
2022-09-20T11:53:48.032Z,4.10
2022-09-20T11:56:23.364Z,5.82
2022-09-20T11:58:52.067Z,2.97
2022-09-20T12:01:28.581Z,3.00
2022-09-20T12:04:31.947Z,4.63
2022-09-20T12:07:20.817Z,5.75
2022-09-20T12:09:58.983Z,4.53
2022-09-20T12:12:41.617Z,3.33
2022-09-20T12:17:49.648Z,3.63
2022-09-20T12:20:42.470Z,3.85
2022-09-20T12:26:13.383Z,2.13
2022-09-20T12:28:52.896Z,5.97
2022-09-20T12:31:19.842Z,5.72
2022-09-20T12:33:59.191Z,2.47
2022-09-20T12:36:27.550Z,1.80
2022-09-20T12:39:00.608Z,4.13
2022-09-20T12:41:28.880Z,4.95
2022-09-20T12:44:01.991Z,4.13
2022-09-20T12:46:42.282Z,4.35
2022-09-20T12:49:41.028Z,2.85
2022-09-20T12:52:50.121Z,3.08
2022-09-20T12:55:32.008Z,4.47
2022-09-20T12:58:05.363Z,4.03
2022-09-20T13:01:14.524Z,3.17
2022-09-20T13:03:48.900Z,2.30
2022-09-20T13:06:16.458Z,3.05
2022-09-20T13:08:59.790Z,6.53
2022-09-20T13:11:39.654Z,4.18
2022-09-20T13:14:06.933Z,2.55
2022-09-20T13:16:36.075Z,4.20
2022-09-20T13:19:06.757Z,4.15
2022-09-20T13:21:36.924Z,3.33
2022-09-20T13:24:04.470Z,3.20
2022-09-20T13:26:40.249Z,2.83
2022-09-20T13:29:09.696Z,2.35
2022-09-20T13:31:36.245Z,3.35
2022-09-20T13:34:13.353Z,3.95
2022-09-20T13:36:40.024Z,4.30
2022-09-20T13:39:06.635Z,6.82
2022-09-20T13:41:35.495Z,4.35
2022-09-20T13:44:02.107Z,3.13
2022-09-20T13:46:31.138Z,7.10
2022-09-20T13:49:15.841Z,3.65
2022-09-20T13:51:42.265Z,3.47
2022-09-20T13:54:30.371Z,4.90
2022-09-20T13:56:59.886Z,4.07
2022-09-20T13:59:31.751Z,4.22
2022-09-20T14:01:59.092Z,3.30
2022-09-20T14:04:27.494Z,3.75
2022-09-20T14:06:56.245Z,4.13
2022-09-20T14:09:33.272Z,7.38
2022-09-20T14:12:00.007Z,4.72
2022-09-20T14:14:27.536Z,6.57
2022-09-20T14:16:55.871Z,1.77
2022-09-20T14:19:27.393Z,3.35
2022-09-20T14:21:53.813Z,1.95
2022-09-20T14:24:32.944Z,5.88
2022-09-20T14:27:03.694Z,3.20
2022-09-20T14:29:39.975Z,4.80
2022-09-20T14:32:16.951Z,8.55
2022-09-20T14:35:06.624Z,4.03
2022-09-20T14:37:50.778Z,4.80
2022-09-20T14:40:23.606Z,12.73
2022-09-20T14:42:53.265Z,3.78
2022-09-20T14:45:29.436Z,4.85
2022-09-20T14:47:59.233Z,2.75
2022-09-20T14:50:37.046Z,4.65
2022-09-20T14:53:06.263Z,4.82
2022-09-20T14:55:37.374Z,3.15
2022-09-20T14:58:13.479Z,4.72
2022-09-20T15:00:48.376Z,4.38
2022-09-20T15:03:16.530Z,4.00
2022-09-20T15:05:47.933Z,3.58
2022-09-20T15:08:15.396Z,4.80
2022-09-20T15:10:41.792Z,2.20
2022-09-20T15:13:10.756Z,4.85
2022-09-20T15:15:37.493Z,3.97
2022-09-20T15:18:04.543Z,4.47
2022-09-20T15:20:30.929Z,3.95
2022-09-20T15:22:57.985Z,3.53
2022-09-20T15:25:24.569Z,2.45
2022-09-20T15:27:51.694Z,2.78
2022-09-20T15:30:19.707Z,3.88
2022-09-20T15:32:46.734Z,3.35
2022-09-20T15:35:14.256Z,3.22
2022-09-20T15:37:41.073Z,3.15
2022-09-20T15:40:08.724Z,6.47
2022-09-20T15:42:38.183Z,3.28
2022-09-20T15:45:13.744Z,2.92
2022-09-20T15:47:40.382Z,3.33
2022-09-20T15:50:10.820Z,3.78
2022-09-20T15:52:40.609Z,2.90
2022-09-20T15:55:08.261Z,4.50
2022-09-20T15:57:35.242Z,3.35
2022-09-20T16:00:01.792Z,4.25
2022-09-20T16:02:29.241Z,3.25
2022-09-20T16:04:55.876Z,5.50
2022-09-20T16:07:25.687Z,5.40
2022-09-20T16:09:55.891Z,4.10
2022-09-20T16:12:23.827Z,4.13
2022-09-20T16:14:50.459Z,2.47
2022-09-20T16:17:17.740Z,1.42
2022-09-20T16:19:48.535Z,1.88
2022-09-20T16:22:15.885Z,3.47
2022-09-20T16:24:42.346Z,2.95
2022-09-20T16:27:09.677Z,2.60
2022-09-20T16:29:36.082Z,2.25
2022-09-20T16:32:03.604Z,2.17
2022-09-20T16:34:34.806Z,2.20
2022-09-20T16:37:07.827Z,2.65
2022-09-20T16:39:34.712Z,1.42
2022-09-20T16:42:03.548Z,2.00
2022-09-20T16:44:34.636Z,2.05
2022-09-20T16:47:01.479Z,1.15
2022-09-20T16:49:28.674Z,3.15
2022-09-20T16:51:55.387Z,1.25
2022-09-20T16:54:21.883Z,4.32
2022-09-20T16:56:49.983Z,1.92
2022-09-20T16:59:19.123Z,2.70
2022-09-20T17:01:45.549Z,2.08
2022-09-20T17:04:16.781Z,4.25
2022-09-20T17:06:43.929Z,1.77
2022-09-20T17:09:11.061Z,1.90
2022-09-20T17:11:39.922Z,4.32
2022-09-20T17:14:06.773Z,19.30
2022-09-20T17:16:35.190Z,13.77
2022-09-20T17:19:05.782Z,9.70
2022-09-20T17:21:32.174Z,5.00
2022-09-20T17:23:59.561Z,3.90
2022-09-20T17:26:28.557Z,3.08
2022-09-20T17:28:56.400Z,4.20
2022-09-20T17:31:28.733Z,2.00
2022-09-20T17:33:55.718Z,3.22
2022-09-20T17:36:22.157Z,2.67
2022-09-20T17:38:53.681Z,3.15
2022-09-20T17:41:20.965Z,4.43
2022-09-20T17:43:48.063Z,1.42
2022-09-20T17:46:22.773Z,2.13
2022-09-20T17:48:55.633Z,4.32
2022-09-20T17:51:27.631Z,1.80
2022-09-20T17:53:55.907Z,3.25
2022-09-20T17:56:28.586Z,3.75
2022-09-20T17:58:56.703Z,5.90
2022-09-20T18:01:23.194Z,3.60
2022-09-20T18:03:50.079Z,3.83
2022-09-20T18:06:19.224Z,3.13
2022-09-20T18:08:49.466Z,4.03
2022-09-20T18:11:17.610Z,3.05
2022-09-20T18:13:44.171Z,3.33
2022-09-20T18:16:16.245Z,5.03
2022-09-20T18:18:43.678Z,5.10
2022-09-20T18:21:16.244Z,5.38
2022-09-20T18:26:24.197Z,3.83
2022-09-20T18:29:02.005Z,3.00
2022-09-20T18:31:35.931Z,3.05
2022-09-20T18:34:15.497Z,6.57
2022-09-20T18:36:42.039Z,3.78
2022-09-20T18:39:08.751Z,3.70
2022-09-20T18:41:37.572Z,7.35
2022-09-20T18:44:07.077Z,4.82
2022-09-20T18:46:37.889Z,4.85
2022-09-20T18:49:09.545Z,3.88
2022-09-20T18:51:39.707Z,5.07
2022-09-20T18:54:08.949Z,4.10
2022-09-20T18:56:36.508Z,4.35
2022-09-20T18:59:08.644Z,4.50
2022-09-20T19:01:50.564Z,2.78
2022-09-20T19:04:54.067Z,5.75
2022-09-20T19:07:39.435Z,3.33
2022-09-20T19:10:05.731Z,3.00
2022-09-20T19:12:40.538Z,4.63
2022-09-20T19:15:44.156Z,3.05
2022-09-20T19:18:48.915Z,3.55
2022-09-20T19:21:26.225Z,2.65
2022-09-20T19:24:03.239Z,3.28
2022-09-20T19:26:31.774Z,4.03
2022-09-20T19:29:00.130Z,3.40
2022-09-20T19:31:29.591Z,3.38
2022-09-20T19:33:57.451Z,4.72
2022-09-20T19:36:25.645Z,6.32
2022-09-20T19:39:04.568Z,5.95
2022-09-20T19:41:39.240Z,5.40
2022-09-20T19:44:08.690Z,4.78
2022-09-20T19:46:59.595Z,7.18
2022-09-20T19:49:31.308Z,4.15
2022-09-20T19:51:58.014Z,4.45
2022-09-20T19:54:24.683Z,4.25
2022-09-20T19:56:55.955Z,5.35
2022-09-20T19:59:24.466Z,5.95
2022-09-20T20:01:52.523Z,4.40
2022-09-20T20:04:19.915Z,6.88
2022-09-20T20:06:58.061Z,5.20
2022-09-20T20:09:27.273Z,5.43
2022-09-20T20:12:06.599Z,4.75
2022-09-20T20:15:10.824Z,5.13
2022-09-20T20:18:02.936Z,5.45
2022-09-20T20:20:43.858Z,4.40
2022-09-20T20:23:43.086Z,6.35
2022-09-20T20:26:17.188Z,6.35
2022-09-20T20:28:43.601Z,4.88
2022-09-20T20:31:12.291Z,4.97
2022-09-20T20:33:39.642Z,4.85
2022-09-20T20:36:09.262Z,6.85
2022-09-20T20:38:39.366Z,4.93
2022-09-20T20:41:11.061Z,6.50
2022-09-20T20:43:39.434Z,5.57
2022-09-20T20:46:08.078Z,7.18
2022-09-20T20:48:36.193Z,12.02
2022-09-20T20:51:11.644Z,6.40
2022-09-20T20:53:47.058Z,4.47
2022-09-20T20:56:28.497Z,5.10
2022-09-20T20:59:01.390Z,5.80
2022-09-20T21:01:32.248Z,7.13
2022-09-20T21:03:58.934Z,7.15
2022-09-20T21:06:27.812Z,4.13
2022-09-20T21:08:54.393Z,4.68
2022-09-20T21:11:29.100Z,9.00
2022-09-20T21:13:57.252Z,5.03
2022-09-20T21:16:29.546Z,6.07
2022-09-20T21:18:56.145Z,5.38
2022-09-20T21:21:30.724Z,6.47
2022-09-20T21:23:58.838Z,4.85
2022-09-20T21:26:26.396Z,6.20
2022-09-20T21:28:54.935Z,5.00
2022-09-20T21:31:22.411Z,8.27
2022-09-20T21:33:49.342Z,9.25
2022-09-20T21:36:18.732Z,6.90
2022-09-20T21:38:45.621Z,7.50
2022-09-20T21:41:15.956Z,7.30
2022-09-20T21:43:44.060Z,7.05
2022-09-20T21:46:17.673Z,7.78
2022-09-20T21:48:44.726Z,7.45
2022-09-20T21:51:13.678Z,7.65
2022-09-20T21:53:43.001Z,9.85
2022-09-20T21:56:14.106Z,7.07
2022-09-20T21:58:40.960Z,8.35
2022-09-20T22:01:13.937Z,7.57
2022-09-20T22:03:42.415Z,7.13
2022-09-20T22:06:13.906Z,7.30
2022-09-20T22:08:42.316Z,6.45
2022-09-20T22:11:14.831Z,7.03
2022-09-20T22:13:47.072Z,8.45
2022-09-20T22:16:22.846Z,5.28
2022-09-20T22:18:49.831Z,7.35
2022-09-20T22:21:18.896Z,8.55
2022-09-20T22:23:48.479Z,8.25
2022-09-20T22:26:16.757Z,9.38
2022-09-20T22:28:43.593Z,6.85
2022-09-20T22:31:15.402Z,7.60
2022-09-20T22:33:46.603Z,5.88
2022-09-20T22:36:15.471Z,6.10
2022-09-20T22:38:43.093Z,4.82
2022-09-20T22:41:10.077Z,7.25
2022-09-20T22:43:37.364Z,7.65
2022-09-20T22:46:11.518Z,5.43
2022-09-20T22:48:38.802Z,6.55
2022-09-20T22:51:12.835Z,7.97
2022-09-20T22:53:39.446Z,4.88
2022-09-20T22:56:10.879Z,7.65
2022-09-20T22:58:40.771Z,5.93
2022-09-20T23:01:19.026Z,5.55
2022-09-20T23:03:48.263Z,5.88
2022-09-20T23:06:17.273Z,8.35
2022-09-20T23:08:43.672Z,9.30
2022-09-20T23:11:10.347Z,5.82
2022-09-20T23:13:36.791Z,7.72
2022-09-20T23:16:18.642Z,4.97
2022-09-20T23:18:49.489Z,4.70
2022-09-20T23:21:16.978Z,6.07
2022-09-20T23:23:44.626Z,5.65
2022-09-20T23:26:17.065Z,6.53
2022-09-20T23:28:45.999Z,6.28
2022-09-20T23:31:14.257Z,9.23
2022-09-20T23:33:46.813Z,6.43
2022-09-20T23:38:39.698Z,8.32
2022-09-20T23:41:08.078Z,9.23
2022-09-20T23:43:35.727Z,6.95
2022-09-20T23:46:03.256Z,7.35
2022-09-20T23:48:30.031Z,9.25
2022-09-20T23:50:56.608Z,6.38
2022-09-20T23:53:23.738Z,8.10
2022-09-20T23:55:50.613Z,8.68
2022-09-20T23:58:17.010Z,8.43
